createdAt,value
2023-04-11T00:00:20.637Z,100674.66
2023-04-11T00:02:47.507Z,100665.75
2023-04-11T00:05:14.339Z,100658.16
2023-04-11T00:07:41.030Z,100658.16
2023-04-11T00:10:08.269Z,100637.44
2023-04-11T00:12:34.997Z,100629.50
2023-04-11T00:15:01.869Z,100625.69
2023-04-11T00:17:31.520Z,100625.63
2023-04-11T00:20:01.683Z,100618.44
2023-04-11T00:22:28.949Z,100610.75
2023-04-11T00:24:55.617Z,100604.56
2023-04-11T00:27:22.317Z,100597.19
2023-04-11T00:29:49.071Z,100591.91
2023-04-11T00:32:15.889Z,100579.38
2023-04-11T00:34:42.605Z,100576.84
2023-04-11T00:37:09.283Z,100573.38
2023-04-11T00:39:35.990Z,100563.88
2023-04-11T00:42:08.911Z,100563.13
2023-04-11T00:44:36.497Z,100544.13
2023-04-11T00:47:06.621Z,100539.91
2023-04-11T00:49:34.126Z,100542.28
2023-04-11T00:52:00.921Z,100527.66
2023-04-11T00:54:30.196Z,100522.50
2023-04-11T00:57:01.915Z,100516.00
2023-04-11T00:59:29.639Z,100508.25
2023-04-11T01:01:57.398Z,100502.50
2023-04-11T01:04:26.192Z,100493.94
2023-04-11T01:07:03.971Z,100478.41
2023-04-11T01:09:33.932Z,100470.69
2023-04-11T01:12:05.309Z,100463.53
2023-04-11T01:14:31.988Z,100446.31
2023-04-11T01:17:02.344Z,100446.56
2023-04-11T01:19:29.943Z,100435.69
2023-04-11T01:21:58.429Z,100436.44
2023-04-11T01:24:25.346Z,100420.47
2023-04-11T01:26:52.253Z,100408.94
2023-04-11T01:29:18.968Z,100406.16
2023-04-11T01:31:45.815Z,100393.94
2023-04-11T01:34:17.072Z,100395.91
2023-04-11T01:36:44.368Z,100375.41
2023-04-11T01:39:11.402Z,100358.38
2023-04-11T01:41:39.978Z,100358.72
2023-04-11T01:44:06.809Z,100360.69
2023-04-11T01:46:33.641Z,100361.56
2023-04-11T01:49:03.134Z,100348.06
2023-04-11T01:51:30.281Z,100326.38
2023-04-11T01:53:57.221Z,100308.13
2023-04-11T01:56:23.960Z,100303.53
2023-04-11T01:58:50.792Z,100286.47
2023-04-11T02:01:18.929Z,100276.13
2023-04-11T02:03:48.983Z,100280.81
2023-04-11T02:06:16.973Z,100264.47
2023-04-11T02:08:44.214Z,100272.97
2023-04-11T02:11:11.081Z,100256.38
2023-04-11T02:13:37.849Z,100242.31
2023-04-11T02:16:09.691Z,100231.97
2023-04-11T02:18:39.831Z,100229.50
2023-04-11T02:21:06.573Z,100229.72
2023-04-11T02:23:34.283Z,100200.53
2023-04-11T02:26:02.610Z,100192.63
2023-04-11T02:28:29.743Z,100180.00
2023-04-11T02:30:56.577Z,100187.28
2023-04-11T02:33:23.379Z,100167.81
2023-04-11T02:35:50.263Z,100166.03
2023-04-11T02:38:17.046Z,100154.34
2023-04-11T02:40:43.723Z,100142.88
2023-04-11T02:43:10.490Z,100131.53
2023-04-11T02:45:37.111Z,100133.03
2023-04-11T02:48:04.541Z,100133.28
2023-04-11T02:50:31.733Z,100131.91
2023-04-11T02:52:58.577Z,100072.06
2023-04-11T02:55:25.443Z,100060.22
2023-04-11T02:57:52.367Z,100040.38
2023-04-11T03:00:20.436Z,100048.66
2023-04-11T03:02:47.165Z,100051.47
2023-04-11T03:05:15.752Z,100035.47
2023-04-11T03:07:43.492Z,100027.47
2023-04-11T03:10:10.594Z,100011.69
2023-04-11T03:12:37.280Z,100000.63
2023-04-11T03:15:04.248Z,99978.94
2023-04-11T03:17:30.901Z,99974.88
2023-04-11T03:19:57.809Z,99971.06
2023-04-11T03:22:24.645Z,99974.50
2023-04-11T03:24:51.382Z,99968.72
2023-04-11T03:27:18.143Z,99962.19
2023-04-11T03:29:44.809Z,99948.41
2023-04-11T03:32:11.582Z,99939.53
2023-04-11T03:34:38.256Z,99930.16
2023-04-11T03:37:05.063Z,99934.88
2023-04-11T03:39:31.822Z,99929.19
2023-04-11T03:41:58.597Z,99925.72
2023-04-11T03:44:25.422Z,99927.97
2023-04-11T03:46:52.162Z,99922.41
2023-04-11T03:49:18.948Z,99909.72
2023-04-11T03:51:46.133Z,99905.28
2023-04-11T03:54:12.853Z,99912.28
2023-04-11T03:56:39.611Z,99906.13
2023-04-11T03:59:06.403Z,99908.97
2023-04-11T04:01:33.839Z,99906.19
2023-04-11T04:04:01.539Z,99902.59
2023-04-11T04:06:29.535Z,99903.97
2023-04-11T04:08:56.228Z,99912.19
2023-04-11T04:11:22.942Z,99908.16
2023-04-11T04:13:49.760Z,99914.66
2023-04-11T04:16:17.675Z,99926.84
2023-04-11T04:18:44.612Z,99911.84
2023-04-11T04:21:11.382Z,99923.16
2023-04-11T04:23:39.522Z,99933.72
2023-04-11T04:26:06.792Z,99940.47
2023-04-11T04:28:33.713Z,99945.13
2023-04-11T04:31:02.224Z,99950.88
2023-04-11T04:33:28.934Z,99975.31
2023-04-11T04:36:00.168Z,99975.81
2023-04-11T04:38:28.925Z,99982.44
2023-04-11T04:40:55.679Z,99988.84
2023-04-11T04:43:24.447Z,99993.03
2023-04-11T04:45:51.323Z,99995.81
2023-04-11T04:48:18.100Z,99992.75
2023-04-11T04:50:45.834Z,100009.41
2023-04-11T04:53:12.627Z,100012.41
2023-04-11T04:55:39.417Z,100015.25
2023-04-11T04:58:06.192Z,100008.13
2023-04-11T05:00:33.702Z,100001.84
2023-04-11T05:03:00.772Z,99992.75
2023-04-11T05:05:27.573Z,100008.13
2023-04-11T05:07:54.215Z,100010.84
2023-04-11T05:10:21.204Z,100009.88
2023-04-11T05:12:47.831Z,100022.41
2023-04-11T05:15:15.203Z,100019.19
2023-04-11T05:17:42.893Z,100024.69
2023-04-11T05:20:10.295Z,100020.88
2023-04-11T05:22:38.109Z,100030.06
2023-04-11T05:25:05.649Z,100024.66
2023-04-11T05:27:32.400Z,100033.00
2023-04-11T05:30:00.594Z,100022.81
2023-04-11T05:32:27.343Z,100023.78
2023-04-11T05:34:58.809Z,100010.16
2023-04-11T05:37:26.276Z,100009.09
2023-04-11T05:39:53.118Z,99999.56
2023-04-11T05:42:19.796Z,99991.91
2023-04-11T05:44:46.434Z,99971.63
2023-04-11T05:47:13.154Z,99970.75
2023-04-11T05:49:39.866Z,99969.59
2023-04-11T05:52:06.810Z,99973.25
2023-04-11T05:54:35.469Z,99970.06
2023-04-11T05:57:03.262Z,99969.66
2023-04-11T05:59:33.273Z,99976.91
2023-04-11T06:02:00.332Z,99966.97
2023-04-11T06:04:27.549Z,99959.50
2023-04-11T06:06:54.382Z,99973.16
2023-04-11T06:09:21.131Z,99974.19
2023-04-11T06:11:48.092Z,99975.22
2023-04-11T06:14:14.852Z,99969.63
2023-04-11T06:16:42.485Z,99969.41
2023-04-11T06:19:09.411Z,99954.00
2023-04-11T06:21:36.105Z,99965.47
2023-04-11T06:24:15.442Z,99957.97
2023-04-11T06:26:42.035Z,99950.13
2023-04-11T06:29:08.724Z,99953.50
2023-04-11T06:31:35.394Z,99954.94
2023-04-11T06:34:02.702Z,99962.97
2023-04-11T06:36:30.213Z,99939.97
2023-04-11T06:38:56.956Z,99936.53
2023-04-11T06:41:23.916Z,99937.19
2023-04-11T06:43:50.947Z,99939.66
2023-04-11T06:46:17.788Z,99802.41
2023-04-11T06:48:44.668Z,99801.56
2023-04-11T06:51:11.378Z,99794.59
2023-04-11T06:53:38.190Z,99778.97
2023-04-11T06:56:05.676Z,99783.13
2023-04-11T06:58:32.336Z,99784.09
2023-04-11T07:00:59.001Z,99777.09
2023-04-11T07:03:26.607Z,99769.03
2023-04-11T07:05:53.401Z,99769.63
2023-04-11T07:08:20.693Z,99761.28
2023-04-11T07:10:47.426Z,99760.53
2023-04-11T07:13:14.186Z,99758.47
2023-04-11T07:15:40.947Z,99751.16
2023-04-11T07:18:07.785Z,99742.91
2023-04-11T07:20:38.205Z,99712.03
2023-04-11T07:23:05.040Z,99711.94
2023-04-11T07:25:33.471Z,99693.75
2023-04-11T07:28:00.770Z,99694.31
2023-04-11T07:30:28.470Z,99695.00
2023-04-11T07:32:55.420Z,99691.63
2023-04-11T07:35:22.411Z,99690.91
2023-04-11T07:37:49.095Z,99674.84
2023-04-11T07:40:16.006Z,99676.97
2023-04-11T07:42:42.691Z,99676.25
2023-04-11T07:45:09.661Z,99681.00
2023-04-11T07:47:36.562Z,99682.13
2023-04-11T07:50:04.439Z,99693.50
2023-04-11T07:52:31.336Z,99698.31
2023-04-11T07:54:58.161Z,99724.91
2023-04-11T07:57:24.963Z,99728.78
2023-04-11T07:59:51.672Z,99765.06
2023-04-11T08:02:18.434Z,99754.81
2023-04-11T08:04:45.509Z,99767.38
2023-04-11T08:07:12.349Z,99775.78
2023-04-11T08:09:39.182Z,99790.19
2023-04-11T08:12:06.240Z,99793.22
2023-04-11T08:14:32.972Z,99787.38
2023-04-11T08:17:14.677Z,99813.72
2023-04-11T08:19:49.278Z,99833.56
2023-04-11T08:22:16.242Z,99837.56
2023-04-11T08:24:42.901Z,99853.31
2023-04-11T08:27:09.841Z,99856.22
2023-04-11T08:29:36.578Z,99861.50
2023-04-11T08:32:05.444Z,99851.66
2023-04-11T08:34:33.161Z,99879.44
2023-04-11T08:36:59.946Z,99901.28
2023-04-11T08:39:27.090Z,99913.63
2023-04-11T08:41:53.929Z,99923.59
2023-04-11T08:44:21.334Z,99920.59
2023-04-11T08:46:48.073Z,99945.13
2023-04-11T08:49:14.842Z,99952.47
2023-04-11T08:51:43.467Z,99967.44
2023-04-11T08:54:10.355Z,100000.84
2023-04-11T08:56:37.585Z,100008.47
2023-04-11T08:59:04.286Z,100011.69
2023-04-11T09:01:33.236Z,100027.84
2023-04-11T09:04:07.362Z,100045.81
2023-04-11T09:06:34.346Z,100052.63
2023-04-11T09:09:05.293Z,100060.47
2023-04-11T09:11:51.274Z,100074.28
2023-04-11T09:14:18.026Z,100095.47
2023-04-11T09:16:55.455Z,100104.59
2023-04-11T09:19:30.455Z,100128.19
2023-04-11T09:22:02.324Z,100143.59
2023-04-11T09:24:30.045Z,100140.66
2023-04-11T09:27:07.265Z,100145.09
2023-04-11T09:29:38.028Z,100151.63
2023-04-11T09:32:04.893Z,100151.69
2023-04-11T09:34:31.545Z,100160.00
2023-04-11T09:36:58.300Z,100158.88
2023-04-11T09:39:28.466Z,100159.94
2023-04-11T09:41:55.388Z,100158.38
2023-04-11T09:44:35.470Z,100170.09
2023-04-11T09:47:02.267Z,100185.31
2023-04-11T09:49:30.012Z,100180.44
2023-04-11T09:51:58.302Z,100181.06
2023-04-11T09:54:27.288Z,100187.03
2023-04-11T09:56:54.324Z,100198.41
2023-04-11T09:59:21.795Z,100220.88
2023-04-11T10:01:51.045Z,100249.00
2023-04-11T10:04:17.877Z,100261.06
2023-04-11T10:07:02.099Z,100308.13
2023-04-11T10:09:30.568Z,100326.84
2023-04-11T10:11:57.394Z,100345.78
2023-04-11T10:14:39.569Z,100356.72
2023-04-11T10:17:23.946Z,100366.00
2023-04-11T10:19:56.626Z,100374.06
2023-04-11T10:22:58.904Z,100422.56
2023-04-11T10:25:25.556Z,100427.50
2023-04-11T10:28:04.060Z,100435.00
2023-04-11T10:30:39.880Z,100447.91
2023-04-11T10:33:26.888Z,100447.09
2023-04-11T10:36:11.002Z,100454.78
2023-04-11T10:38:43.724Z,100465.75
2023-04-11T10:41:19.391Z,100469.34
2023-04-11T10:43:46.917Z,100472.81
2023-04-11T10:46:19.202Z,100492.03
2023-04-11T10:49:05.297Z,100500.44
2023-04-11T10:51:33.818Z,100513.13
2023-04-11T10:54:01.129Z,100517.34
2023-04-11T10:56:40.471Z,100524.34
2023-04-11T10:59:07.227Z,100521.25
2023-04-11T11:04:04.776Z,100523.78
2023-04-11T11:06:38.027Z,100524.75
2023-04-11T11:09:26.388Z,100534.78
2023-04-11T11:12:09.803Z,100521.69
2023-04-11T11:14:40.732Z,100520.78
2023-04-11T11:17:09.029Z,100510.44
2023-04-11T11:19:36.532Z,100514.94
2023-04-11T11:22:04.683Z,100519.31
2023-04-11T11:24:31.472Z,100542.69
2023-04-11T11:27:01.599Z,100554.66
2023-04-11T11:29:35.721Z,100562.88
2023-04-11T11:32:04.140Z,100570.13
2023-04-11T11:34:34.996Z,100572.97
2023-04-11T11:37:06.788Z,100585.34
2023-04-11T11:39:34.830Z,100590.38
2023-04-11T11:42:01.917Z,100606.09
2023-04-11T11:44:30.397Z,100614.50
2023-04-11T11:47:07.216Z,100605.63
2023-04-11T11:49:46.682Z,100599.19
2023-04-11T11:52:32.273Z,100601.91
2023-04-11T11:54:59.359Z,100594.97
2023-04-11T11:57:26.067Z,100592.31
2023-04-11T11:59:54.273Z,100594.72
2023-04-11T12:02:23.553Z,100595.97
2023-04-11T12:04:50.697Z,100592.91
2023-04-11T12:07:22.684Z,100595.03
2023-04-11T12:09:49.747Z,100598.03
2023-04-11T12:12:19.226Z,100595.06
2023-04-11T12:14:54.901Z,100587.22
2023-04-11T12:17:21.582Z,100583.84
2023-04-11T12:19:48.661Z,100577.69
2023-04-11T12:22:15.653Z,100564.75
2023-04-11T12:24:42.391Z,100566.69
2023-04-11T12:27:10.135Z,100555.41
2023-04-11T12:29:37.501Z,100573.91
2023-04-11T12:32:04.261Z,100559.53
2023-04-11T12:34:31.148Z,100564.16
2023-04-11T12:36:58.144Z,100561.66
2023-04-11T12:39:24.965Z,100555.91
2023-04-11T12:41:51.630Z,100540.66
2023-04-11T12:44:18.320Z,100530.81
2023-04-11T12:46:45.143Z,100520.63
2023-04-11T12:49:11.976Z,100526.59
2023-04-11T12:51:38.636Z,100522.50
2023-04-11T12:54:05.755Z,100520.91
2023-04-11T12:56:33.054Z,100517.56
2023-04-11T12:58:59.788Z,100521.13
2023-04-11T13:01:26.511Z,100519.09
2023-04-11T13:03:53.421Z,100526.03
2023-04-11T13:06:20.227Z,100521.84
2023-04-11T13:08:47.110Z,100530.81
2023-04-11T13:11:13.796Z,100535.59
2023-04-11T13:13:40.601Z,100551.41
2023-04-11T13:16:08.576Z,100556.34
2023-04-11T13:18:35.327Z,100557.22
2023-04-11T13:21:02.063Z,100566.66
2023-04-11T13:23:28.735Z,100574.47
2023-04-11T13:25:55.390Z,100573.28
2023-04-11T13:28:22.088Z,100588.75
2023-04-11T13:30:48.876Z,100590.75
2023-04-11T13:33:15.630Z,100595.47
2023-04-11T13:35:42.340Z,100604.28
2023-04-11T13:38:11.157Z,100605.34
2023-04-11T13:40:39.472Z,100604.50
2023-04-11T13:43:06.362Z,100615.44
2023-04-11T13:45:33.057Z,100610.00
2023-04-11T13:47:59.799Z,100601.91
2023-04-11T13:50:26.535Z,100605.47
2023-04-11T13:52:56.896Z,100604.81
2023-04-11T13:55:23.675Z,100603.97
2023-04-11T13:57:50.379Z,100615.50
2023-04-11T14:00:17.687Z,100620.75
2023-04-11T14:02:44.615Z,100624.09
2023-04-11T14:05:11.625Z,100639.72
2023-04-11T14:07:38.281Z,100650.56
2023-04-11T14:10:05.477Z,100668.50
2023-04-11T14:12:32.120Z,100699.84
2023-04-11T14:14:58.909Z,100716.13
2023-04-11T14:17:25.721Z,100728.63
2023-04-11T14:19:52.431Z,100754.19
2023-04-11T14:22:19.409Z,100770.44
2023-04-11T14:24:46.044Z,100788.47
2023-04-11T14:27:12.746Z,100805.88
2023-04-11T14:29:39.443Z,100828.31
2023-04-11T14:32:07.208Z,100843.03
2023-04-11T14:34:34.042Z,100863.19
2023-04-11T14:37:00.891Z,100863.34
2023-04-11T14:39:27.590Z,100876.59
2023-04-11T14:41:54.624Z,100880.56
2023-04-11T14:44:21.283Z,100877.88
2023-04-11T14:46:47.927Z,100893.19
2023-04-11T14:49:14.570Z,100894.56
2023-04-11T14:51:41.422Z,100894.03
2023-04-11T14:54:08.069Z,100899.44
2023-04-11T14:56:34.802Z,100903.28
2023-04-11T14:59:01.649Z,100901.09
2023-04-11T15:01:28.399Z,100906.75
2023-04-11T15:03:56.877Z,100901.69
2023-04-11T15:06:23.901Z,100894.38
2023-04-11T15:08:51.225Z,100889.94
2023-04-11T15:11:19.042Z,100889.19
2023-04-11T15:13:48.191Z,100884.97
2023-04-11T15:16:14.963Z,100888.94
2023-04-11T15:18:41.636Z,100888.81
2023-04-11T15:21:08.484Z,100889.75
2023-04-11T15:23:35.411Z,100883.06
2023-04-11T15:26:03.410Z,100877.53
2023-04-11T15:28:35.820Z,100858.91
2023-04-11T15:31:03.972Z,100847.25
2023-04-11T15:33:31.870Z,100828.03
2023-04-11T15:36:00.547Z,100832.75
2023-04-11T15:38:28.707Z,100831.06
2023-04-11T15:40:58.728Z,100844.38
2023-04-11T15:43:25.583Z,100846.22
2023-04-11T15:45:53.479Z,100854.72
2023-04-11T15:48:20.224Z,100853.97
2023-04-11T15:50:47.094Z,100857.41
2023-04-11T15:53:13.921Z,100862.69
2023-04-11T15:55:41.806Z,100868.72
2023-04-11T15:58:09.221Z,100870.91
2023-04-11T16:00:42.173Z,100870.91
2023-04-11T16:03:10.623Z,100868.47
2023-04-11T16:05:40.731Z,100863.25
2023-04-11T16:08:08.047Z,100859.38
2023-04-11T16:10:35.105Z,100863.66
2023-04-11T16:13:02.793Z,100873.63
2023-04-11T16:15:29.825Z,100881.34
2023-04-11T16:17:56.714Z,100890.69
2023-04-11T16:20:23.492Z,100880.66
2023-04-11T16:22:50.438Z,100873.81
2023-04-11T16:25:21.016Z,100873.88
2023-04-11T16:27:48.348Z,100865.88
2023-04-11T16:30:15.224Z,100858.31
2023-04-11T16:32:41.974Z,100873.50
2023-04-11T16:35:09.104Z,100867.19
2023-04-11T16:37:35.793Z,100872.34
2023-04-11T16:40:02.601Z,100869.94
2023-04-11T16:42:29.292Z,100867.22
2023-04-11T16:44:56.053Z,100874.06
2023-04-11T16:47:26.323Z,100873.69
2023-04-11T16:49:53.523Z,100876.00
2023-04-11T16:52:21.107Z,100875.53
2023-04-11T16:54:47.988Z,100878.91
2023-04-11T16:57:14.629Z,100890.00
2023-04-11T16:59:41.397Z,100896.22
2023-04-11T17:02:08.104Z,100899.91
2023-04-11T17:04:35.283Z,100900.75
2023-04-11T17:07:02.288Z,100900.63
2023-04-11T17:09:29.525Z,100904.44
2023-04-11T17:11:57.781Z,100906.53
2023-04-11T17:14:24.634Z,100902.66
2023-04-11T17:16:51.634Z,100895.59
2023-04-11T17:19:18.406Z,100902.09
2023-04-11T17:21:45.133Z,100899.34
2023-04-11T17:24:11.839Z,100894.03
2023-04-11T17:26:38.558Z,100897.50
2023-04-11T17:29:06.577Z,100900.69
2023-04-11T17:31:34.050Z,100903.53
2023-04-11T17:34:00.748Z,100913.31
2023-04-11T17:36:28.388Z,100910.00
2023-04-11T17:38:56.021Z,100905.47
2023-04-11T17:41:22.960Z,100904.00
2023-04-11T17:43:50.111Z,100905.66
2023-04-11T17:46:16.955Z,100894.72
2023-04-11T17:48:43.851Z,100896.59
2023-04-11T17:51:10.676Z,100896.91
2023-04-11T17:53:37.413Z,100895.16
2023-04-11T17:56:05.794Z,100899.00
2023-04-11T17:58:32.931Z,100898.06
2023-04-11T18:00:59.690Z,100904.59
2023-04-11T18:03:26.675Z,100898.94
2023-04-11T18:05:54.710Z,100908.94
2023-04-11T18:08:29.317Z,100899.00
2023-04-11T18:11:04.351Z,100905.53
2023-04-11T18:13:31.667Z,100899.34
2023-04-11T18:15:58.618Z,100910.94
2023-04-11T18:18:25.624Z,100911.66
2023-04-11T18:20:52.306Z,100919.06
2023-04-11T18:23:18.980Z,100919.44
2023-04-11T18:25:46.031Z,100925.88
2023-04-11T18:28:12.675Z,100931.38
2023-04-11T18:30:39.434Z,100926.25
2023-04-11T18:33:06.154Z,100935.00
2023-04-11T18:35:32.974Z,100935.19
2023-04-11T18:38:00.600Z,100925.59
2023-04-11T18:40:27.632Z,100925.94
2023-04-11T18:42:56.251Z,100932.59
2023-04-11T18:45:23.912Z,100931.97
2023-04-11T18:47:51.116Z,100933.44
2023-04-11T18:50:18.966Z,100934.06
2023-04-11T18:52:46.879Z,100938.25
2023-04-11T18:55:16.283Z,100944.00
2023-04-11T18:57:48.002Z,100947.66
2023-04-11T19:00:18.560Z,100939.63
2023-04-11T19:02:47.587Z,100941.88
2023-04-11T19:05:14.773Z,100946.50
2023-04-11T19:07:42.880Z,100952.13
2023-04-11T19:10:11.176Z,100959.56
2023-04-11T19:12:38.300Z,100963.53
2023-04-11T19:15:07.765Z,100972.03
2023-04-11T19:17:38.722Z,100973.94
2023-04-11T19:20:12.977Z,100986.13
2023-04-11T19:22:41.023Z,100990.47
2023-04-11T19:25:12.009Z,100991.97
2023-04-11T19:27:41.465Z,100998.59
2023-04-11T19:30:10.285Z,101001.78
2023-04-11T19:32:40.606Z,101001.03
2023-04-11T19:35:10.013Z,101004.78
2023-04-11T19:37:36.749Z,100997.00
2023-04-11T19:40:07.416Z,100993.56
2023-04-11T19:42:37.006Z,100991.53
2023-04-11T19:45:05.000Z,100990.81
2023-04-11T19:47:32.690Z,100992.94
2023-04-11T19:50:00.947Z,100986.25
2023-04-11T19:52:28.182Z,100989.19
2023-04-11T19:54:55.841Z,100989.19
2023-04-11T19:57:23.792Z,100994.34
2023-04-11T19:59:50.838Z,100987.22
2023-04-11T20:02:17.739Z,100992.28
2023-04-11T20:04:45.860Z,100988.63
2023-04-11T20:07:12.983Z,100985.75
2023-04-11T20:09:39.678Z,100986.00
2023-04-11T20:12:06.712Z,100977.22
2023-04-11T20:14:33.923Z,100981.03
2023-04-11T20:17:00.951Z,100976.81
2023-04-11T20:19:29.910Z,100979.91
2023-04-11T20:21:56.754Z,100975.25
2023-04-11T20:24:23.959Z,100978.19
2023-04-11T20:26:51.298Z,100981.16
2023-04-11T20:29:18.248Z,100982.31
2023-04-11T20:31:45.325Z,100968.00
2023-04-11T20:34:12.084Z,100968.53
2023-04-11T20:36:39.047Z,100967.91
2023-04-11T20:39:06.272Z,100968.59
2023-04-11T20:41:33.189Z,100980.59
2023-04-11T20:43:59.908Z,100962.75
2023-04-11T20:46:31.424Z,100962.75
2023-04-11T20:48:58.252Z,100962.19
2023-04-11T20:51:25.121Z,100959.81
2023-04-11T20:53:51.928Z,100957.28
2023-04-11T20:56:18.673Z,100955.75
2023-04-11T20:58:46.478Z,100962.28
2023-04-11T21:01:13.618Z,100956.38
2023-04-11T21:03:42.500Z,100960.81
2023-04-11T21:06:10.942Z,100950.03
2023-04-11T21:08:37.847Z,100955.03
2023-04-11T21:11:05.721Z,100943.38
2023-04-11T21:13:32.432Z,100947.31
2023-04-11T21:15:59.313Z,100943.69
2023-04-11T21:18:26.002Z,100936.72
2023-04-11T21:20:52.776Z,100937.22
2023-04-11T21:23:19.516Z,100935.22
2023-04-11T21:25:46.632Z,100921.44
2023-04-11T21:28:14.127Z,100911.69
2023-04-11T21:30:42.341Z,100918.31
2023-04-11T21:33:10.423Z,100897.13
2023-04-11T21:35:37.153Z,100903.97
2023-04-11T21:38:03.864Z,100894.53
2023-04-11T21:40:30.903Z,100888.38
2023-04-11T21:42:57.575Z,100885.56
2023-04-11T21:45:24.508Z,100888.03
2023-04-11T21:47:51.750Z,100883.88
2023-04-11T21:50:19.031Z,100882.50
2023-04-11T21:52:46.432Z,100880.00
2023-04-11T21:55:14.484Z,100876.63
2023-04-11T21:57:41.554Z,100864.16
2023-04-11T22:00:10.954Z,100860.03
2023-04-11T22:02:38.872Z,100852.13
2023-04-11T22:05:08.675Z,100855.75
2023-04-11T22:07:46.274Z,100860.34
2023-04-11T22:10:13.143Z,100845.56
2023-04-11T22:12:41.816Z,100846.16
2023-04-11T22:15:09.775Z,100843.97
2023-04-11T22:17:37.304Z,100836.69
2023-04-11T22:20:09.146Z,100827.31
2023-04-11T22:22:36.423Z,100823.78
2023-04-11T22:25:03.648Z,100813.84
2023-04-11T22:27:34.147Z,100816.22
2023-04-11T22:30:02.323Z,100737.19
2023-04-11T22:32:30.196Z,100736.03
2023-04-11T22:34:56.882Z,100732.69
2023-04-11T22:37:23.647Z,100734.00
2023-04-11T22:39:50.361Z,100723.19
2023-04-11T22:42:17.208Z,100719.69
2023-04-11T22:44:43.890Z,100718.91
2023-04-11T22:47:13.603Z,100707.63
2023-04-11T22:49:40.595Z,100705.47
2023-04-11T22:52:08.881Z,100702.94
2023-04-11T22:54:35.591Z,100694.91
2023-04-11T22:57:02.501Z,100697.81
2023-04-11T22:59:29.196Z,100684.91
2023-04-11T23:01:56.005Z,100690.34
2023-04-11T23:04:22.986Z,100683.69
2023-04-11T23:06:51.345Z,100675.19
2023-04-11T23:09:18.884Z,100664.72
2023-04-11T23:11:46.853Z,100666.47
2023-04-11T23:14:15.269Z,100662.09
2023-04-11T23:16:43.355Z,100661.00
2023-04-11T23:19:10.538Z,100657.09
2023-04-11T23:21:40.058Z,100653.63
2023-04-11T23:24:07.071Z,100656.56
2023-04-11T23:26:33.962Z,100652.19
2023-04-11T23:29:02.188Z,100648.75
2023-04-11T23:31:29.532Z,100646.22
2023-04-11T23:34:01.097Z,100645.28
2023-04-11T23:36:28.141Z,100627.72
2023-04-11T23:38:55.016Z,100622.75
2023-04-11T23:41:21.822Z,100589.41
2023-04-11T23:43:48.543Z,100580.97
2023-04-11T23:46:17.041Z,100578.66
2023-04-11T23:48:44.355Z,100572.50
2023-04-11T23:51:11.173Z,100565.38
2023-04-11T23:53:38.089Z,100558.06
2023-04-11T23:56:05.178Z,100548.56
2023-04-11T23:58:31.938Z,100547.59
